map of PXO home
PXO - Airport
Location
City:  Porto Santo, Região Autónoma da Madeira (Madeira), Portugal
ICAO:LPPS
IATA:PXO

Details
Type:Airport (Aerodrome, Airfield)
Use:Public/Civil, Military, International (customs port of entry)
Latitude:33°04'24"N (33.073386)
Longitude:16°21'00"W (-16.349974)
Datum:WGS 1984
Elevation:341 ft (104 m)
Variation:4.55°W (WMM2015v2 magnetic declination)
0.16° annual change
Runways:1
Longest:9861 × 148 ft (3006 × 45 m), paved

Time
Time Zone:UTC+0 (DST+1)
Local Time:

Weather
METAR:LPPS 041400Z 10012KT 9999 FEW015 BKN030 17/10 Q1026
TAF:LPPS 041100Z 0412/0518 09012KT 9999 SCT015
TEMPO 0412/0509 FEW015 BKN030

Related Locations
Nearby:
Farthest:LDH: 12155 mi / 19561 km
Lord Howe Island, NSW, AU

Find:

   beyond  
but within

Other Information
Maps:
NOTAMs:
Links:
Sources:

  
  • flag of Portugal
  • flag of Região Autónoma da Madeira (Madeira)
  

Sectional Chart

Flight Planning
at skyvector.com

Satellite Image

Google Maps Satellite view

 

Copyright © 2004-2019 Karl L. Swartz. All rights reserved.
The Great Circle Mapper name and logo are trademarks of the Great Circle Mapper.
All other trademarks mentioned herein belong to their respective owners.
Please see credits for attibutions and further copyright information.

  Follow gcmap on Facebook Follow gcmap on Twitter GCmap on LinkedIn

hCard Microformat

Geo Microformat